sensor_id;sensor_type;location;lat;lon;timestamp;pressure;altitude;pressure_sealevel;temperature;humidity
37020;BME280;22932;52.442;16.896;2022-11-21T16:31:18;99485.48;;;-1.42;91.98
37020;BME280;22932;52.442;16.896;2022-11-21T16:33:48;99485.17;;;-1.43;91.64
37020;BME280;22932;52.442;16.896;2022-11-21T16:36:22;99494.12;;;-1.42;91.70
37020;BME280;22932;52.442;16.896;2022-11-21T16:38:51;99492.35;;;-1.42;91.81
37020;BME280;22932;52.442;16.896;2022-11-21T16:41:22;99486.48;;;-1.41;91.62
37020;BME280;22932;52.442;16.896;2022-11-21T16:43:52;99483.85;;;-1.42;91.49
37020;BME280;22932;52.442;16.896;2022-11-21T16:46:23;99483.02;;;-1.43;91.52
37020;BME280;22932;52.442;16.896;2022-11-21T16:49:00;99488.61;;;-1.41;91.51
37020;BME280;22932;52.442;16.896;2022-11-21T16:51:30;99490.59;;;-1.42;91.37
37020;BME280;22932;52.442;16.896;2022-11-21T16:53:59;99491.17;;;-1.40;91.49
37020;BME280;22932;52.442;16.896;2022-11-21T16:56:28;99493.60;;;-1.39;91.49
37020;BME280;22932;52.442;16.896;2022-11-21T16:58:57;99491.67;;;-1.40;91.31
37020;BME280;22932;52.442;16.896;2022-11-21T17:01:27;99493.20;;;-1.41;91.19
37020;BME280;22932;52.442;16.896;2022-11-21T17:03:56;99489.17;;;-1.42;91.32
37020;BME280;22932;52.442;16.896;2022-11-21T17:06:27;99486.81;;;-1.41;91.15
37020;BME280;22932;52.442;16.896;2022-11-21T17:08:59;99482.52;;;-1.40;91.35
37020;BME280;22932;52.442;16.896;2022-11-21T17:11:30;99479.34;;;-1.37;91.48
37020;BME280;22932;52.442;16.896;2022-11-21T17:13:59;99478.04;;;-1.32;91.62
37020;BME280;22932;52.442;16.896;2022-11-21T17:16:29;99484.52;;;-1.32;91.44
37020;BME280;22932;52.442;16.896;2022-11-21T17:19:00;99486.44;;;-1.31;91.39
37020;BME280;22932;52.442;16.896;2022-11-21T17:21:30;99486.83;;;-1.32;91.23
37020;BME280;22932;52.442;16.896;2022-11-21T17:24:00;99492.57;;;-1.33;91.01
37020;BME280;22932;52.442;16.896;2022-11-21T17:26:29;99492.36;;;-1.36;90.91
37020;BME280;22932;52.442;16.896;2022-11-21T17:28:59;99490.90;;;-1.38;90.95
37020;BME280;22932;52.442;16.896;2022-11-21T17:31:30;99494.20;;;-1.41;90.85
37020;BME280;22932;52.442;16.896;2022-11-21T17:34:00;99499.96;;;-1.42;90.95
37020;BME280;22932;52.442;16.896;2022-11-21T17:36:31;99502.90;;;-1.41;91.15
37020;BME280;22932;52.442;16.896;2022-11-21T17:39:01;99506.44;;;-1.41;91.04
37020;BME280;22932;52.442;16.896;2022-11-21T17:41:30;99513.03;;;-1.42;90.97
37020;BME280;22932;52.442;16.896;2022-11-21T17:44:00;99512.96;;;-1.44;90.81
37020;BME280;22932;52.442;16.896;2022-11-21T17:46:29;99517.72;;;-1.44;90.85
37020;BME280;22932;52.442;16.896;2022-11-21T17:48:59;99523.47;;;-1.43;90.95
37020;BME280;22932;52.442;16.896;2022-11-21T17:51:31;99523.39;;;-1.41;91.05
37020;BME280;22932;52.442;16.896;2022-11-21T17:54:01;99526.27;;;-1.39;91.23
37020;BME280;22932;52.442;16.896;2022-11-21T17:56:33;99524.95;;;-1.38;91.16
37020;BME280;22932;52.442;16.896;2022-11-21T17:59:04;99527.55;;;-1.36;91.03
37020;BME280;22932;52.442;16.896;2022-11-21T18:01:34;99529.31;;;-1.37;90.98
37020;BME280;22932;52.442;16.896;2022-11-21T18:04:05;99530.19;;;-1.36;91.01
37020;BME280;22932;52.442;16.896;2022-11-21T18:06:36;99527.54;;;-1.36;90.91
37020;BME280;22932;52.442;16.896;2022-11-21T18:09:06;99525.23;;;-1.36;90.90
37020;BME280;22932;52.442;16.896;2022-11-21T18:11:38;99528.56;;;-1.36;90.85
37020;BME280;22932;52.442;16.896;2022-11-21T18:14:09;99532.57;;;-1.34;90.78
37020;BME280;22932;52.442;16.896;2022-11-21T18:16:37;99525.25;;;-1.33;90.68
37020;BME280;22932;52.442;16.896;2022-11-21T18:19:07;99524.21;;;-1.34;90.61
37020;BME280;22932;52.442;16.896;2022-11-21T18:21:40;99522.54;;;-1.35;90.72
37020;BME280;22932;52.442;16.896;2022-11-21T18:24:10;99521.50;;;-1.33;90.80
37020;BME280;22932;52.442;16.896;2022-11-21T18:26:40;99520.80;;;-1.30;90.87
37020;BME280;22932;52.442;16.896;2022-11-21T18:29:10;99514.80;;;-1.26;90.88
37020;BME280;22932;52.442;16.896;2022-11-21T18:31:39;99513.58;;;-1.24;90.95
37020;BME280;22932;52.442;16.896;2022-11-21T18:34:10;99513.28;;;-1.22;90.81
37020;BME280;22932;52.442;16.896;2022-11-21T18:36:40;99514.52;;;-1.19;90.94
37020;BME280;22932;52.442;16.896;2022-11-21T18:39:09;99516.27;;;-1.19;90.65
37020;BME280;22932;52.442;16.896;2022-11-21T18:41:38;99513.19;;;-1.17;90.68
37020;BME280;22932;52.442;16.896;2022-11-21T18:44:08;99513.98;;;-1.16;90.77
37020;BME280;22932;52.442;16.896;2022-11-21T18:46:37;99518.75;;;-1.19;90.29
37020;BME280;22932;52.442;16.896;2022-11-21T18:49:07;99533.38;;;-1.21;90.05
37020;BME280;22932;52.442;16.896;2022-11-21T18:51:36;99537.61;;;-1.24;89.97
37020;BME280;22932;52.442;16.896;2022-11-21T18:54:06;99543.24;;;-1.27;89.66
37020;BME280;22932;52.442;16.896;2022-11-21T18:56:38;99543.89;;;-1.29;89.71
37020;BME280;22932;52.442;16.896;2022-11-21T18:59:07;99543.19;;;-1.29;89.66
37020;BME280;22932;52.442;16.896;2022-11-21T19:01:37;99547.19;;;-1.31;89.31
37020;BME280;22932;52.442;16.896;2022-11-21T19:04:07;99550.45;;;-1.29;89.67
37020;BME280;22932;52.442;16.896;2022-11-21T19:06:36;99554.09;;;-1.28;89.30
37020;BME280;22932;52.442;16.896;2022-11-21T19:09:06;99555.77;;;-1.30;89.10
37020;BME280;22932;52.442;16.896;2022-11-21T19:11:35;99560.58;;;-1.31;89.11
37020;BME280;22932;52.442;16.896;2022-11-21T19:14:04;99565.61;;;-1.29;89.13
37020;BME280;22932;52.442;16.896;2022-11-21T19:16:34;99570.59;;;-1.26;89.22
37020;BME280;22932;52.442;16.896;2022-11-21T19:19:05;99561.57;;;-1.23;89.45
37020;BME280;22932;52.442;16.896;2022-11-21T19:21:37;99561.71;;;-1.19;89.58
37020;BME280;22932;52.442;16.896;2022-11-21T19:24:09;99558.77;;;-1.14;89.60
37020;BME280;22932;52.442;16.896;2022-11-21T19:26:40;99553.98;;;-1.10;89.34
37020;BME280;22932;52.442;16.896;2022-11-21T19:29:10;99554.91;;;-1.08;89.22
37020;BME280;22932;52.442;16.896;2022-11-21T19:31:39;99550.38;;;-1.06;89.08
37020;BME280;22932;52.442;16.896;2022-11-21T19:34:09;99546.00;;;-1.04;88.97
37020;BME280;22932;52.442;16.896;2022-11-21T19:36:38;99551.10;;;-1.00;89.14
37020;BME280;22932;52.442;16.896;2022-11-21T19:39:07;99553.91;;;-1.00;88.90
37020;BME280;22932;52.442;16.896;2022-11-21T19:41:37;99553.89;;;-1.00;88.70
37020;BME280;22932;52.442;16.896;2022-11-21T19:44:06;99545.95;;;-1.00;88.75
37020;BME280;22932;52.442;16.896;2022-11-21T19:46:37;99548.29;;;-1.01;88.55
37020;BME280;22932;52.442;16.896;2022-11-21T19:49:09;99550.02;;;-1.03;88.31
37020;BME280;22932;52.442;16.896;2022-11-21T19:51:40;99550.23;;;-1.04;88.46
37020;BME280;22932;52.442;16.896;2022-11-21T19:54:11;99547.38;;;-1.03;88.49
37020;BME280;22932;52.442;16.896;2022-11-21T19:56:38;99547.54;;;-1.03;88.30
37020;BME280;22932;52.442;16.896;2022-11-21T19:59:11;99546.19;;;-1.04;88.17
37020;BME280;22932;52.442;16.896;2022-11-21T20:01:41;99546.73;;;-1.07;88.10
37020;BME280;22932;52.442;16.896;2022-11-21T20:04:11;99539.76;;;-1.12;88.04
37020;BME280;22932;52.442;16.896;2022-11-21T20:06:41;99528.39;;;-1.14;88.24
37020;BME280;22932;52.442;16.896;2022-11-21T20:09:14;99528.80;;;-1.22;87.95
37020;BME280;22932;52.442;16.896;2022-11-21T20:11:45;99536.03;;;-1.30;87.93
37020;BME280;22932;52.442;16.896;2022-11-21T20:14:15;99536.09;;;-1.41;87.86
37020;BME280;22932;52.442;16.896;2022-11-21T20:16:46;99535.66;;;-1.49;88.03
37020;BME280;22932;52.442;16.896;2022-11-21T20:19:17;99540.45;;;-1.56;88.23
37020;BME280;22932;52.442;16.896;2022-11-21T20:21:47;99542.08;;;-1.63;88.23
37020;BME280;22932;52.442;16.896;2022-11-21T20:24:17;99542.43;;;-1.69;88.43
37020;BME280;22932;52.442;16.896;2022-11-21T20:26:46;99541.73;;;-1.73;88.78
37020;BME280;22932;52.442;16.896;2022-11-21T20:29:16;99533.48;;;-1.77;88.82
37020;BME280;22932;52.442;16.896;2022-11-21T20:31:45;99534.30;;;-1.85;88.74
37020;BME280;22932;52.442;16.896;2022-11-21T20:34:15;99539.50;;;-1.94;88.82
37020;BME280;22932;52.442;16.896;2022-11-21T20:36:44;99540.24;;;-2.01;89.08
37020;BME280;22932;52.442;16.896;2022-11-21T20:39:16;99544.98;;;-2.07;89.17
37020;BME280;22932;52.442;16.896;2022-11-21T20:41:44;99547.27;;;-2.10;89.39
37020;BME280;22932;52.442;16.896;2022-11-21T20:44:16;99545.65;;;-2.13;89.59
37020;BME280;22932;52.442;16.896;2022-11-21T20:46:45;99539.59;;;-2.15;89.64
37020;BME280;22932;52.442;16.896;2022-11-21T20:49:15;99543.20;;;-2.17;89.84
37020;BME280;22932;52.442;16.896;2022-11-21T20:51:44;99549.48;;;-2.19;90.07
37020;BME280;22932;52.442;16.896;2022-11-21T20:54:14;99551.79;;;-2.19;90.17
37020;BME280;22932;52.442;16.896;2022-11-21T20:56:44;99555.81;;;-2.18;90.33
37020;BME280;22932;52.442;16.896;2022-11-21T20:59:13;99554.33;;;-2.17;90.61
37020;BME280;22932;52.442;16.896;2022-11-21T21:01:43;99562.86;;;-2.15;90.55
37020;BME280;22932;52.442;16.896;2022-11-21T21:04:12;99563.33;;;-2.10;90.67
37020;BME280;22932;52.442;16.896;2022-11-21T21:06:41;99553.02;;;-2.06;90.87
37020;BME280;22932;52.442;16.896;2022-11-21T21:09:10;99547.05;;;-2.03;90.70
37020;BME280;22932;52.442;16.896;2022-11-21T21:11:40;99548.34;;;-2.00;90.73
37020;BME280;22932;52.442;16.896;2022-11-21T21:14:09;99546.13;;;-1.98;90.69
37020;BME280;22932;52.442;16.896;2022-11-21T21:16:38;99541.35;;;-1.98;90.51
37020;BME280;22932;52.442;16.896;2022-11-21T21:19:07;99532.27;;;-1.97;90.65
37020;BME280;22932;52.442;16.896;2022-11-21T21:21:37;99529.95;;;-1.93;90.71
37020;BME280;22932;52.442;16.896;2022-11-21T21:24:10;99534.55;;;-1.90;90.68
37020;BME280;22932;52.442;16.896;2022-11-21T21:26:41;99537.95;;;-1.84;90.83
37020;BME280;22932;52.442;16.896;2022-11-21T21:29:12;99539.96;;;-1.79;90.89
37020;BME280;22932;52.442;16.896;2022-11-21T21:31:42;99537.30;;;-1.79;90.69
37020;BME280;22932;52.442;16.896;2022-11-21T21:34:11;99533.63;;;-1.76;90.59
37020;BME280;22932;52.442;16.896;2022-11-21T21:36:41;99528.91;;;-1.77;90.36
37020;BME280;22932;52.442;16.896;2022-11-21T21:39:10;99519.52;;;-1.80;90.18
37020;BME280;22932;52.442;16.896;2022-11-21T21:41:39;99518.56;;;-1.81;90.13
37020;BME280;22932;52.442;16.896;2022-11-21T21:44:11;99512.84;;;-1.83;90.04
37020;BME280;22932;52.442;16.896;2022-11-21T21:46:40;99506.12;;;-1.83;90.18
37020;BME280;22932;52.442;16.896;2022-11-21T21:49:10;99512.20;;;-1.81;90.25
37020;BME280;22932;52.442;16.896;2022-11-21T21:51:40;99511.17;;;-1.78;90.48
37020;BME280;22932;52.442;16.896;2022-11-21T21:54:16;99505.95;;;-1.74;90.59
37020;BME280;22932;52.442;16.896;2022-11-21T21:56:46;99508.34;;;-1.72;90.49
